sensor_id;sensor_type;location;lat;lon;timestamp;pressure;altitude;pressure_sealevel;temperature;humidity
6833;BME280;3454;42.654;23.378;2023-03-03T00:01:42;94479.13;;;5.27;100.00
6833;BME280;3454;42.654;23.378;2023-03-03T00:04:07;94505.72;;;5.31;100.00
6833;BME280;3454;42.654;23.378;2023-03-03T00:06:33;94527.47;;;5.32;100.00
6833;BME280;3454;42.654;23.378;2023-03-03T00:08:58;94508.44;;;5.28;100.00
6833;BME280;3454;42.654;23.378;2023-03-03T00:11:23;94483.22;;;5.28;100.00
6833;BME280;3454;42.654;23.378;2023-03-03T00:13:51;94501.97;;;5.36;100.00
6833;BME280;3454;42.654;23.378;2023-03-03T00:16:36;94490.72;;;5.29;100.00
6833;BME280;3454;42.654;23.378;2023-03-03T00:19:02;94484.47;;;5.09;100.00
6833;BME280;3454;42.654;23.378;2023-03-03T00:26:37;94489.19;;;5.27;100.00
6833;BME280;3454;42.654;23.378;2023-03-03T00:29:32;94495.66;;;5.31;100.00
6833;BME280;3454;42.654;23.378;2023-03-03T00:34:34;94493.59;;;5.36;100.00
6833;BME280;3454;42.654;23.378;2023-03-03T00:37:00;94484.75;;;5.18;100.00
6833;BME280;3454;42.654;23.378;2023-03-03T00:39:36;94468.75;;;5.19;100.00
6833;BME280;3454;42.654;23.378;2023-03-03T00:42:29;94490.78;;;5.28;100.00
6833;BME280;3454;42.654;23.378;2023-03-03T00:44:58;94485.56;;;5.31;100.00
6833;BME280;3454;42.654;23.378;2023-03-03T00:47:37;94452.94;;;5.17;100.00
6833;BME280;3454;42.654;23.378;2023-03-03T00:52:42;94448.50;;;5.07;100.00
6833;BME280;3454;42.654;23.378;2023-03-03T00:55:10;94459.56;;;5.18;100.00
6833;BME280;3454;42.654;23.378;2023-03-03T00:57:35;94454.03;;;5.13;100.00
6833;BME280;3454;42.654;23.378;2023-03-03T01:00:01;94456.75;;;5.22;100.00
6833;BME280;3454;42.654;23.378;2023-03-03T01:02:26;94429.03;;;5.09;100.00
6833;BME280;3454;42.654;23.378;2023-03-03T01:04:52;94450.19;;;5.20;100.00
6833;BME280;3454;42.654;23.378;2023-03-03T01:07:20;94441.84;;;5.19;100.00
6833;BME280;3454;42.654;23.378;2023-03-03T01:09:45;94464.13;;;5.25;100.00
6833;BME280;3454;42.654;23.378;2023-03-03T01:12:11;94446.25;;;5.16;100.00
6833;BME280;3454;42.654;23.378;2023-03-03T01:14:37;94429.44;;;5.16;100.00
6833;BME280;3454;42.654;23.378;2023-03-03T01:17:03;94451.69;;;5.22;100.00
6833;BME280;3454;42.654;23.378;2023-03-03T01:19:29;94450.41;;;5.17;100.00
6833;BME280;3454;42.654;23.378;2023-03-03T01:21:54;94439.22;;;5.08;100.00
6833;BME280;3454;42.654;23.378;2023-03-03T01:24:20;94435.19;;;5.05;100.00
6833;BME280;3454;42.654;23.378;2023-03-03T01:26:46;94419.91;;;4.96;100.00
6833;BME280;3454;42.654;23.378;2023-03-03T01:29:11;94428.03;;;5.12;100.00
6833;BME280;3454;42.654;23.378;2023-03-03T01:31:37;94389.84;;;5.18;100.00
6833;BME280;3454;42.654;23.378;2023-03-03T01:34:02;94418.84;;;5.24;100.00
6833;BME280;3454;42.654;23.378;2023-03-03T01:36:28;94443.03;;;5.26;100.00
6833;BME280;3454;42.654;23.378;2023-03-03T01:38:54;94395.47;;;5.22;100.00
6833;BME280;3454;42.654;23.378;2023-03-03T01:41:20;94441.81;;;5.32;100.00
6833;BME280;3454;42.654;23.378;2023-03-03T01:43:47;94437.88;;;5.28;100.00
6833;BME280;3454;42.654;23.378;2023-03-03T01:47:32;94413.72;;;5.13;100.00
6833;BME280;3454;42.654;23.378;2023-03-03T01:49:35;94437.00;;;5.16;100.00
6833;BME280;3454;42.654;23.378;2023-03-03T01:52:14;94425.69;;;5.22;100.00
6833;BME280;3454;42.654;23.378;2023-03-03T01:54:48;94417.84;;;5.13;100.00
6833;BME280;3454;42.654;23.378;2023-03-03T01:57:22;94428.75;;;5.14;100.00
6833;BME280;3454;42.654;23.378;2023-03-03T01:59:51;94371.22;;;4.95;100.00
6833;BME280;3454;42.654;23.378;2023-03-03T02:02:18;94392.69;;;5.01;100.00
6833;BME280;3454;42.654;23.378;2023-03-03T02:04:44;94414.34;;;5.03;100.00
6833;BME280;3454;42.654;23.378;2023-03-03T02:07:11;94407.81;;;4.88;100.00
6833;BME280;3454;42.654;23.378;2023-03-03T02:09:58;94403.28;;;4.93;100.00
6833;BME280;3454;42.654;23.378;2023-03-03T02:12:33;94384.75;;;4.94;100.00
6833;BME280;3454;42.654;23.378;2023-03-03T02:15:00;94393.19;;;4.93;100.00
6833;BME280;3454;42.654;23.378;2023-03-03T02:17:25;94402.16;;;4.85;100.00
6833;BME280;3454;42.654;23.378;2023-03-03T02:20:06;94411.34;;;4.98;100.00
6833;BME280;3454;42.654;23.378;2023-03-03T02:25:08;94412.75;;;5.02;100.00
6833;BME280;3454;42.654;23.378;2023-03-03T02:27:35;94403.56;;;4.89;100.00
6833;BME280;3454;42.654;23.378;2023-03-03T02:30:19;94399.53;;;4.99;100.00
6833;BME280;3454;42.654;23.378;2023-03-03T02:32:45;94424.72;;;5.11;100.00
6833;BME280;3454;42.654;23.378;2023-03-03T02:35:33;94418.06;;;5.10;100.00
6833;BME280;3454;42.654;23.378;2023-03-03T02:38:29;94429.03;;;5.09;100.00
6833;BME280;3454;42.654;23.378;2023-03-03T02:41:20;94442.97;;;5.15;100.00
6833;BME280;3454;42.654;23.378;2023-03-03T02:44:17;94429.16;;;5.08;100.00
6833;BME280;3454;42.654;23.378;2023-03-03T02:46:46;94415.63;;;5.09;100.00
6833;BME280;3454;42.654;23.378;2023-03-03T02:49:15;94410.72;;;5.07;100.00
6833;BME280;3454;42.654;23.378;2023-03-03T02:51:41;94386.31;;;5.08;100.00
6833;BME280;3454;42.654;23.378;2023-03-03T02:54:07;94416.34;;;5.11;100.00
6833;BME280;3454;42.654;23.378;2023-03-03T02:56:33;94436.69;;;5.21;100.00
6833;BME280;3454;42.654;23.378;2023-03-03T02:58:59;94433.88;;;5.13;100.00
6833;BME280;3454;42.654;23.378;2023-03-03T03:01:24;94421.72;;;5.06;100.00
6833;BME280;3454;42.654;23.378;2023-03-03T03:03:50;94430.25;;;5.17;100.00
6833;BME280;3454;42.654;23.378;2023-03-03T03:06:15;94416.78;;;4.92;100.00
6833;BME280;3454;42.654;23.378;2023-03-03T03:08:40;94404.38;;;5.02;100.00
6833;BME280;3454;42.654;23.378;2023-03-03T03:11:06;94370.47;;;4.82;100.00
6833;BME280;3454;42.654;23.378;2023-03-03T03:13:32;94408.81;;;4.98;100.00
6833;BME280;3454;42.654;23.378;2023-03-03T03:15:58;94383.34;;;4.90;100.00
6833;BME280;3454;42.654;23.378;2023-03-03T03:18:25;94404.84;;;5.07;100.00
6833;BME280;3454;42.654;23.378;2023-03-03T03:20:51;94418.91;;;4.98;100.00
6833;BME280;3454;42.654;23.378;2023-03-03T03:23:16;94370.75;;;4.78;100.00
6833;BME280;3454;42.654;23.378;2023-03-03T03:25:42;94404.66;;;5.10;100.00
6833;BME280;3454;42.654;23.378;2023-03-03T03:28:12;94397.41;;;5.05;100.00
6833;BME280;3454;42.654;23.378;2023-03-03T03:30:38;94391.09;;;5.00;100.00
6833;BME280;3454;42.654;23.378;2023-03-03T03:33:04;94391.91;;;5.00;100.00
6833;BME280;3454;42.654;23.378;2023-03-03T03:35:29;94389.44;;;4.99;100.00
6833;BME280;3454;42.654;23.378;2023-03-03T03:37:56;94397.00;;;5.11;100.00
6833;BME280;3454;42.654;23.378;2023-03-03T03:40:21;94392.25;;;5.07;100.00
6833;BME280;3454;42.654;23.378;2023-03-03T03:43:00;94395.47;;;5.22;100.00
6833;BME280;3454;42.654;23.378;2023-03-03T03:45:26;94382.81;;;5.10;100.00
6833;BME280;3454;42.654;23.378;2023-03-03T03:47:51;94374.97;;;5.02;100.00
6833;BME280;3454;42.654;23.378;2023-03-03T03:50:16;94366.38;;;5.05;100.00
6833;BME280;3454;42.654;23.378;2023-03-03T03:52:42;94363.69;;;4.95;100.00
6833;BME280;3454;42.654;23.378;2023-03-03T03:55:08;94360.16;;;4.98;100.00
6833;BME280;3454;42.654;23.378;2023-03-03T03:57:33;94373.63;;;5.09;100.00
6833;BME280;3454;42.654;23.378;2023-03-03T03:59:59;94363.97;;;5.03;100.00
6833;BME280;3454;42.654;23.378;2023-03-03T04:02:24;94373.44;;;5.00;100.00
6833;BME280;3454;42.654;23.378;2023-03-03T04:04:50;94362.66;;;5.10;100.00
6833;BME280;3454;42.654;23.378;2023-03-03T04:07:15;94348.47;;;4.97;100.00
6833;BME280;3454;42.654;23.378;2023-03-03T04:09:40;94367.31;;;5.28;100.00
6833;BME280;3454;42.654;23.378;2023-03-03T04:12:06;94361.41;;;5.16;100.00
6833;BME280;3454;42.654;23.378;2023-03-03T04:14:31;94356.56;;;5.13;100.00
6833;BME280;3454;42.654;23.378;2023-03-03T04:16:57;94365.06;;;5.12;100.00
6833;BME280;3454;42.654;23.378;2023-03-03T04:19:22;94367.06;;;5.07;100.00
6833;BME280;3454;42.654;23.378;2023-03-03T04:21:48;94363.53;;;5.09;100.00
6833;BME280;3454;42.654;23.378;2023-03-03T04:24:13;94368.59;;;5.09;100.00
6833;BME280;3454;42.654;23.378;2023-03-03T04:26:39;94372.50;;;5.13;100.00
6833;BME280;3454;42.654;23.378;2023-03-03T04:29:05;94371.00;;;5.11;100.00
6833;BME280;3454;42.654;23.378;2023-03-03T04:31:31;94369.09;;;5.15;100.00
6833;BME280;3454;42.654;23.378;2023-03-03T04:33:57;94365.75;;;5.14;100.00
6833;BME280;3454;42.654;23.378;2023-03-03T04:36:22;94371.88;;;5.23;100.00
6833;BME280;3454;42.654;23.378;2023-03-03T04:38:48;94363.44;;;5.11;100.00
6833;BME280;3454;42.654;23.378;2023-03-03T04:41:14;94377.13;;;5.20;100.00
6833;BME280;3454;42.654;23.378;2023-03-03T04:43:40;94374.09;;;5.27;100.00
6833;BME280;3454;42.654;23.378;2023-03-03T04:46:06;94370.00;;;5.13;100.00
6833;BME280;3454;42.654;23.378;2023-03-03T04:48:31;94365.66;;;5.16;100.00
6833;BME280;3454;42.654;23.378;2023-03-03T04:50:56;94373.00;;;5.19;100.00
6833;BME280;3454;42.654;23.378;2023-03-03T04:53:22;94365.84;;;5.25;100.00
6833;BME280;3454;42.654;23.378;2023-03-03T04:55:52;94369.16;;;5.26;100.00
6833;BME280;3454;42.654;23.378;2023-03-03T04:58:17;94378.19;;;5.41;100.00
6833;BME280;3454;42.654;23.378;2023-03-03T05:00:44;94384.66;;;5.32;100.00
6833;BME280;3454;42.654;23.378;2023-03-03T05:03:11;94380.75;;;5.28;100.00
6833;BME280;3454;42.654;23.378;2023-03-03T05:05:37;94373.00;;;5.19;100.00
6833;BME280;3454;42.654;23.378;2023-03-03T05:08:02;94375.50;;;5.31;100.00
6833;BME280;3454;42.654;23.378;2023-03-03T05:10:28;94393.72;;;5.35;100.00
6833;BME280;3454;42.654;23.378;2023-03-03T05:12:53;94383.47;;;5.25;100.00
6833;BME280;3454;42.654;23.378;2023-03-03T05:15:19;94382.44;;;5.28;100.00
6833;BME280;3454;42.654;23.378;2023-03-03T05:17:45;94383.78;;;5.21;100.00
6833;BME280;3454;42.654;23.378;2023-03-03T05:20:11;94377.78;;;5.34;100.00
6833;BME280;3454;42.654;23.378;2023-03-03T05:22:37;94389.69;;;5.32;100.00
6833;BME280;3454;42.654;23.378;2023-03-03T05:25:03;94395.38;;;5.23;100.00
6833;BME280;3454;42.654;23.378;2023-03-03T05:27:29;94383.97;;;5.18;100.00
6833;BME280;3454;42.654;23.378;2023-03-03T05:29:54;94400.03;;;5.17;100.00
6833;BME280;3454;42.654;23.378;2023-03-03T05:32:20;94386.03;;;5.13;100.00
6833;BME280;3454;42.654;23.378;2023-03-03T05:34:46;94391.03;;;5.25;100.00
6833;BME280;3454;42.654;23.378;2023-03-03T05:37:11;94401.59;;;5.30;100.00
6833;BME280;3454;42.654;23.378;2023-03-03T05:39:37;94397.38;;;5.31;100.00
6833;BME280;3454;42.654;23.378;2023-03-03T05:42:03;94390.53;;;5.20;100.00
6833;BME280;3454;42.654;23.378;2023-03-03T05:44:28;94391.06;;;5.13;100.00
6833;BME280;3454;42.654;23.378;2023-03-03T05:46:54;94386.19;;;5.22;100.00
6833;BME280;3454;42.654;23.378;2023-03-03T05:49:21;94406.53;;;5.32;100.00
6833;BME280;3454;42.654;23.378;2023-03-03T05:51:47;94383.38;;;5.27;100.00
6833;BME280;3454;42.654;23.378;2023-03-03T05:54:12;94412.25;;;5.34;100.00
6833;BME280;3454;42.654;23.378;2023-03-03T05:56:38;94409.84;;;5.32;100.00
6833;BME280;3454;42.654;23.378;2023-03-03T05:59:03;94393.50;;;5.38;100.00
6833;BME280;3454;42.654;23.378;2023-03-03T06:01:28;94403.09;;;5.45;100.00
6833;BME280;3454;42.654;23.378;2023-03-03T06:03:54;94402.84;;;5.48;100.00
6833;BME280;3454;42.654;23.378;2023-03-03T06:06:19;94413.59;;;5.63;100.00
6833;BME280;3454;42.654;23.378;2023-03-03T06:08:45;94410.66;;;5.69;100.00
6833;BME280;3454;42.654;23.378;2023-03-03T06:11:10;94421.56;;;5.93;100.00
6833;BME280;3454;42.654;23.378;2023-03-03T06:13:37;94450.06;;;6.06;100.00
6833;BME280;3454;42.654;23.378;2023-03-03T06:16:02;94426.88;;;6.01;100.00
6833;BME280;3454;42.654;23.378;2023-03-03T06:18:28;94429.66;;;6.09;100.00
6833;BME280;3454;42.654;23.378;2023-03-03T06:20:54;94408.72;;;8.28;100.00
6833;BME280;3454;42.654;23.378;2023-03-03T06:23:20;94394.00;;;9.14;100.00
6833;BME280;3454;42.654;23.378;2023-03-03T06:25:46;94487.25;;;8.06;100.00
6833;BME280;3454;42.654;23.378;2023-03-03T06:28:13;94489.41;;;7.57;100.00
6833;BME280;3454;42.654;23.378;2023-03-03T06:30:39;94467.81;;;7.31;100.00
6833;BME280;3454;42.654;23.378;2023-03-03T06:33:04;94445.38;;;7.04;100.00
6833;BME280;3454;42.654;23.378;2023-03-03T06:35:30;94441.69;;;6.86;100.00
6833;BME280;3454;42.654;23.378;2023-03-03T06:37:55;94417.19;;;6.53;100.00
6833;BME280;3454;42.654;23.378;2023-03-03T06:40:21;94405.16;;;6.22;100.00
6833;BME280;3454;42.654;23.378;2023-03-03T06:42:46;94397.31;;;6.14;100.00
6833;BME280;3454;42.654;23.378;2023-03-03T06:45:12;94394.09;;;6.12;100.00
6833;BME280;3454;42.654;23.378;2023-03-03T06:47:38;94417.94;;;6.08;100.00
6833;BME280;3454;42.654;23.378;2023-03-03T06:50:03;94406.91;;;5.98;100.00
6833;BME280;3454;42.654;23.378;2023-03-03T06:52:29;94395.91;;;5.99;100.00
6833;BME280;3454;42.654;23.378;2023-03-03T06:54:57;94414.63;;;5.84;100.00
6833;BME280;3454;42.654;23.378;2023-03-03T06:57:28;94405.84;;;5.89;100.00
6833;BME280;3454;42.654;23.378;2023-03-03T07:00:19;94429.66;;;6.09;100.00
6833;BME280;3454;42.654;23.378;2023-03-03T07:02:45;94431.44;;;6.20;100.00
6833;BME280;3454;42.654;23.378;2023-03-03T07:05:14;94434.66;;;6.22;100.00
6833;BME280;3454;42.654;23.378;2023-03-03T07:07:40;94423.38;;;6.15;100.00
6833;BME280;3454;42.654;23.378;2023-03-03T07:10:23;94442.63;;;6.39;100.00
6833;BME280;3454;42.654;23.378;2023-03-03T07:12:48;94421.34;;;6.20;100.00
6833;BME280;3454;42.654;23.378;2023-03-03T07:17:43;94432.84;;;6.24;100.00
6833;BME280;3454;42.654;23.378;2023-03-03T07:20:23;94416.63;;;6.26;100.00
6833;BME280;3454;42.654;23.378;2023-03-03T07:22:49;94410.72;;;6.38;100.00
6833;BME280;3454;42.654;23.378;2023-03-03T07:27:53;94403.41;;;6.57;100.00
6833;BME280;3454;42.654;23.378;2023-03-03T07:30:26;94420.31;;;6.68;100.00
6833;BME280;3454;42.654;23.378;2023-03-03T07:32:57;94445.97;;;6.40;100.00
6833;BME280;3454;42.654;23.378;2023-03-03T07:35:40;94457.19;;;6.36;100.00
6833;BME280;3454;42.654;23.378;2023-03-03T07:40:42;94422.44;;;6.39;100.00
6833;BME280;3454;42.654;23.378;2023-03-03T07:43:30;94448.03;;;6.46;100.00
6833;BME280;3454;42.654;23.378;2023-03-03T07:46:04;94446.34;;;6.57;100.00
6833;BME280;3454;42.654;23.378;2023-03-03T07:48:43;94429.56;;;6.45;100.00
6833;BME280;3454;42.654;23.378;2023-03-03T07:51:39;94377.25;;;6.69;100.00
6833;BME280;3454;42.654;23.378;2023-03-03T07:56:54;94452.84;;;7.06;100.00
6833;BME280;3454;42.654;23.378;2023-03-03T07:59:23;94472.63;;;7.01;100.00
6833;BME280;3454;42.654;23.378;2023-03-03T08:01:54;94475.69;;;6.93;100.00
6833;BME280;3454;42.654;23.378;2023-03-03T08:04:36;94449.84;;;6.78;100.00
6833;BME280;3454;42.654;23.378;2023-03-03T08:07:10;94426.19;;;6.68;100.00
6833;BME280;3454;42.654;23.378;2023-03-03T08:09:59;94434.91;;;6.75;100.00
6833;BME280;3454;42.654;23.378;2023-03-03T08:12:41;94403.91;;;6.62;100.00
6833;BME280;3454;42.654;23.378;2023-03-03T08:15:24;94399.19;;;6.69;100.00
6833;BME280;3454;42.654;23.378;2023-03-03T08:17:52;94423.97;;;6.75;100.00
6833;BME280;3454;42.654;23.378;2023-03-03T08:23:30;94413.16;;;6.51;100.00
6833;BME280;3454;42.654;23.378;2023-03-03T08:25:56;94401.34;;;6.51;100.00
6833;BME280;3454;42.654;23.378;2023-03-03T08:28:21;94427.84;;;6.57;100.00
6833;BME280;3454;42.654;23.378;2023-03-03T08:30:47;94419.81;;;6.52;100.00
6833;BME280;3454;42.654;23.378;2023-03-03T08:33:14;94410.63;;;6.51;100.00
6833;BME280;3454;42.654;23.378;2023-03-03T08:35:40;94386.75;;;6.44;100.00
6833;BME280;3454;42.654;23.378;2023-03-03T08:38:07;94389.16;;;6.45;100.00
6833;BME280;3454;42.654;23.378;2023-03-03T08:40:33;94395.28;;;6.54;100.00
6833;BME280;3454;42.654;23.378;2023-03-03T08:42:59;94412.63;;;6.58;100.00
6833;BME280;3454;42.654;23.378;2023-03-03T08:45:25;94428.31;;;6.51;100.00
6833;BME280;3454;42.654;23.378;2023-03-03T08:47:50;94400.78;;;6.48;100.00
6833;BME280;3454;42.654;23.378;2023-03-03T08:50:17;94371.53;;;6.56;100.00
6833;BME280;3454;42.654;23.378;2023-03-03T08:52:43;94421.47;;;6.64;100.00
6833;BME280;3454;42.654;23.378;2023-03-03T08:55:09;94421.47;;;6.64;100.00
6833;BME280;3454;42.654;23.378;2023-03-03T08:57:34;94417.91;;;6.66;100.00
6833;BME280;3454;42.654;23.378;2023-03-03T09:00:00;94418.00;;;6.65;100.00
6833;BME280;3454;42.654;23.378;2023-03-03T09:02:26;94413.66;;;6.67;100.00
6833;BME280;3454;42.654;23.378;2023-03-03T09:04:51;94413.06;;;6.63;100.00
6833;BME280;3454;42.654;23.378;2023-03-03T09:07:17;94418.84;;;6.76;100.00
6833;BME280;3454;42.654;23.378;2023-03-03T09:09:42;94447.44;;;6.88;100.00
6833;BME280;3454;42.654;23.378;2023-03-03T09:12:18;94392.63;;;6.55;100.00
6833;BME280;3454;42.654;23.378;2023-03-03T09:14:45;94448.34;;;6.76;100.00
6833;BME280;3454;42.654;23.378;2023-03-03T09:17:32;94437.31;;;6.77;100.00
6833;BME280;3454;42.654;23.378;2023-03-03T09:20:01;94422.75;;;6.92;100.00
6833;BME280;3454;42.654;23.378;2023-03-03T09:22:35;94415.28;;;7.01;100.00
6833;BME280;3454;42.654;23.378;2023-03-03T09:25:21;94446.66;;;7.21;100.00
6833;BME280;3454;42.654;23.378;2023-03-03T09:27:46;94446.66;;;7.21;100.00
6833;BME280;3454;42.654;23.378;2023-03-03T09:30:35;94470.09;;;7.23;100.00
6833;BME280;3454;42.654;23.378;2023-03-03T09:33:01;94434.69;;;7.34;100.00
6833;BME280;3454;42.654;23.378;2023-03-03T09:35:41;94457.44;;;7.34;100.00
6833;BME280;3454;42.654;23.378;2023-03-03T09:46:06;94512.28;;;7.22;100.00
6833;BME280;3454;42.654;23.378;2023-03-03T09:48:47;94476.38;;;6.95;100.00
6833;BME280;3454;42.654;23.378;2023-03-03T09:51:25;94501.47;;;7.53;100.00
6833;BME280;3454;42.654;23.378;2023-03-03T09:56:55;94525.50;;;7.59;100.00
6833;BME280;3454;42.654;23.378;2023-03-03T10:04:45;94471.72;;;7.57;100.00
6833;BME280;3454;42.654;23.378;2023-03-03T10:07:39;94501.00;;;7.59;100.00
6833;BME280;3454;42.654;23.378;2023-03-03T10:16:13;94498.47;;;7.59;100.00
6833;BME280;3454;42.654;23.378;2023-03-03T10:19:01;94446.63;;;7.54;100.00
6833;BME280;3454;42.654;23.378;2023-03-03T10:21:34;94463.22;;;7.47;100.00
6833;BME280;3454;42.654;23.378;2023-03-03T10:32:31;94447.34;;;7.23;100.00
6833;BME280;3454;42.654;23.378;2023-03-03T10:40:34;94421.03;;;6.92;100.00
6833;BME280;3454;42.654;23.378;2023-03-03T10:45:44;94431.03;;;7.05;100.00
6833;BME280;3454;42.654;23.378;2023-03-03T10:48:37;94426.75;;;7.05;100.00
6833;BME280;3454;42.654;23.378;2023-03-03T11:01:52;94343.16;;;6.75;100.00
6833;BME280;3454;42.654;23.378;2023-03-03T11:10:14;94375.44;;;7.05;100.00
6833;BME280;3454;42.654;23.378;2023-03-03T11:12:52;94396.56;;;7.15;100.00
6833;BME280;3454;42.654;23.378;2023-03-03T11:18:13;94371.44;;;7.56;100.00
6833;BME280;3454;42.654;23.378;2023-03-03T11:21:05;94435.16;;;7.39;100.00
6833;BME280;3454;42.654;23.378;2023-03-03T11:30:00;94381.19;;;7.07;100.00
6833;BME280;3454;42.654;23.378;2023-03-03T11:40:52;94312.06;;;6.63;100.00
6833;BME280;3454;42.654;23.378;2023-03-03T11:43:45;94286.94;;;6.40;100.00
6833;BME280;3454;42.654;23.378;2023-03-03T11:46:30;94297.13;;;6.71;100.00
6833;BME280;3454;42.654;23.378;2023-03-03T11:55:03;94314.22;;;6.79;100.00
6833;BME280;3454;42.654;23.378;2023-03-03T11:57:43;94330.75;;;6.61;100.00
6833;BME280;3454;42.654;23.378;2023-03-03T12:00:19;94291.28;;;6.71;100.00
6833;BME280;3454;42.654;23.378;2023-03-03T12:08:49;94260.06;;;6.61;100.00
6833;BME280;3454;42.654;23.378;2023-03-03T12:11:30;94288.41;;;6.75;100.00
6833;BME280;3454;42.654;23.378;2023-03-03T12:14:35;94281.63;;;6.65;100.00
6833;BME280;3454;42.654;23.378;2023-03-03T12:16:57;94293.09;;;6.91;100.00
6833;BME280;3454;42.654;23.378;2023-03-03T12:25:01;94297.41;;;7.22;100.00
6833;BME280;3454;42.654;23.378;2023-03-03T12:27:59;94302.84;;;6.96;100.00
6833;BME280;3454;42.654;23.378;2023-03-03T12:30:41;94299.03;;;7.01;100.00
6833;BME280;3454;42.654;23.378;2023-03-03T12:33:20;94307.66;;;7.10;100.00
6833;BME280;3454;42.654;23.378;2023-03-03T12:41:51;94271.41;;;6.77;100.00
6833;BME280;3454;42.654;23.378;2023-03-03T12:44:44;94296.16;;;7.17;100.00
6833;BME280;3454;42.654;23.378;2023-03-03T12:47:27;94294.06;;;7.33;100.00
6833;BME280;3454;42.654;23.378;2023-03-03T12:55:47;94332.91;;;7.21;100.00
6833;BME280;3454;42.654;23.378;2023-03-03T12:58:29;94288.31;;;7.31;100.00
6833;BME280;3454;42.654;23.378;2023-03-03T13:06:31;94276.66;;;7.39;100.00
6833;BME280;3454;42.654;23.378;2023-03-03T13:16:47;94302.69;;;7.62;100.00
6833;BME280;3454;42.654;23.378;2023-03-03T13:19:26;94293.16;;;7.54;100.00
6833;BME280;3454;42.654;23.378;2023-03-03T13:21:58;94265.97;;;7.47;100.00
6833;BME280;3454;42.654;23.378;2023-03-03T13:24:32;94279.91;;;7.62;100.00
6833;BME280;3454;42.654;23.378;2023-03-03T13:27:16;94278.81;;;7.55;100.00
6833;BME280;3454;42.654;23.378;2023-03-03T13:32:30;94284.91;;;7.52;100.00
6833;BME280;3454;42.654;23.378;2023-03-03T13:35:00;94284.25;;;7.39;100.00
6833;BME280;3454;42.654;23.378;2023-03-03T13:37:37;94291.91;;;9.03;100.00
6833;BME280;3454;42.654;23.378;2023-03-03T13:43:10;94529.28;;;12.30;100.00
6833;BME280;3454;42.654;23.378;2023-03-03T13:45:43;94634.81;;;11.73;100.00
6833;BME280;3454;42.654;23.378;2023-03-03T13:51:28;94319.06;;;8.91;100.00
6833;BME280;3454;42.654;23.378;2023-03-03T13:54:01;94307.59;;;8.57;100.00
6833;BME280;3454;42.654;23.378;2023-03-03T14:10:08;94286.78;;;7.39;100.00
6833;BME280;3454;42.654;23.378;2023-03-03T14:12:46;94284.09;;;7.52;100.00
6833;BME280;3454;42.654;23.378;2023-03-03T14:15:33;94283.25;;;7.62;100.00
6833;BME280;3454;42.654;23.378;2023-03-03T14:20:47;94276.59;;;7.82;100.00
6833;BME280;3454;42.654;23.378;2023-03-03T14:26:09;94292.47;;;7.84;100.00
6833;BME280;3454;42.654;23.378;2023-03-03T14:29:12;94293.44;;;7.72;100.00
6833;BME280;3454;42.654;23.378;2023-03-03T14:31:42;94280.91;;;7.71;100.00
6833;BME280;3454;42.654;23.378;2023-03-03T14:34:24;94294.28;;;7.61;100.00
6833;BME280;3454;42.654;23.378;2023-03-03T14:36:57;94290.50;;;7.56;100.00
6833;BME280;3454;42.654;23.378;2023-03-03T14:39:34;94276.81;;;7.58;100.00
6833;BME280;3454;42.654;23.378;2023-03-03T14:42:12;94269.56;;;7.65;100.00
6833;BME280;3454;42.654;23.378;2023-03-03T14:49:37;94271.16;;;8.88;100.00
6833;BME280;3454;42.654;23.378;2023-03-03T14:54:43;94439.69;;;10.13;100.00
6833;BME280;3454;42.654;23.378;2023-03-03T14:57:15;94403.06;;;9.47;100.00
6833;BME280;3454;42.654;23.378;2023-03-03T14:59:59;94335.47;;;8.97;100.00
6833;BME280;3454;42.654;23.378;2023-03-03T15:02:40;94301.69;;;8.87;100.00
6833;BME280;3454;42.654;23.378;2023-03-03T15:05:29;94280.94;;;8.63;100.00
6833;BME280;3454;42.654;23.378;2023-03-03T15:08:15;94316.63;;;8.80;100.00
6833;BME280;3454;42.654;23.378;2023-03-03T15:10:47;94327.97;;;8.56;100.00
6833;BME280;3454;42.654;23.378;2023-03-03T15:16:20;94311.75;;;8.37;100.00
6833;BME280;3454;42.654;23.378;2023-03-03T15:18:54;94325.00;;;8.51;100.00
6833;BME280;3454;42.654;23.378;2023-03-03T15:21:31;94285.25;;;8.21;100.00
6833;BME280;3454;42.654;23.378;2023-03-03T15:27:01;94285.38;;;8.19;100.00
6833;BME280;3454;42.654;23.378;2023-03-03T15:43:40;94269.00;;;7.82;100.00
6833;BME280;3454;42.654;23.378;2023-03-03T15:46:15;94293.72;;;7.90;100.00
6833;BME280;3454;42.654;23.378;2023-03-03T15:49:31;94281.16;;;7.88;100.00
6833;BME280;3454;42.654;23.378;2023-03-03T15:52:11;94297.41;;;8.06;100.00
6833;BME280;3454;42.654;23.378;2023-03-03T16:06:01;94279.44;;;7.89;100.00
6833;BME280;3454;42.654;23.378;2023-03-03T16:09:01;94296.66;;;7.95;100.00
6833;BME280;3454;42.654;23.378;2023-03-03T16:11:46;94301.72;;;7.95;100.00
6833;BME280;3454;42.654;23.378;2023-03-03T16:14:21;94312.78;;;7.94;100.00
6833;BME280;3454;42.654;23.378;2023-03-03T16:30:32;94311.78;;;7.85;100.00
6833;BME280;3454;42.654;23.378;2023-03-03T16:36:01;94297.97;;;7.89;100.00
6833;BME280;3454;42.654;23.378;2023-03-03T16:38:37;94305.00;;;7.86;100.00
6833;BME280;3454;42.654;23.378;2023-03-03T16:41:10;94320.25;;;7.95;100.00
6833;BME280;3454;42.654;23.378;2023-03-03T16:46:47;94322.34;;;7.90;100.00
6833;BME280;3454;42.654;23.378;2023-03-03T16:51:53;94360.88;;;7.94;100.00
6833;BME280;3454;42.654;23.378;2023-03-03T16:57:02;94375.13;;;7.95;100.00
6833;BME280;3454;42.654;23.378;2023-03-03T17:00:03;94358.69;;;7.89;100.00
6833;BME280;3454;42.654;23.378;2023-03-03T17:02:44;94357.53;;;7.93;100.00
6833;BME280;3454;42.654;23.378;2023-03-03T17:05:38;94337.28;;;7.93;100.00
6833;BME280;3454;42.654;23.378;2023-03-03T17:08:22;94346.47;;;7.94;100.00
6833;BME280;3454;42.654;23.378;2023-03-03T17:11:09;94336.06;;;7.88;100.00
6833;BME280;3454;42.654;23.378;2023-03-03T17:17:21;94346.88;;;7.79;100.00
6833;BME280;3454;42.654;23.378;2023-03-03T17:20:05;94354.13;;;7.83;100.00
6833;BME280;3454;42.654;23.378;2023-03-03T17:25:22;94369.31;;;7.83;100.00
6833;BME280;3454;42.654;23.378;2023-03-03T17:30:46;94427.91;;;7.99;100.00
6833;BME280;3454;42.654;23.378;2023-03-03T17:33:38;94383.53;;;7.84;100.00
6833;BME280;3454;42.654;23.378;2023-03-03T17:36:32;94397.16;;;7.72;100.00
6833;BME280;3454;42.654;23.378;2023-03-03T17:39:09;94402.41;;;7.80;100.00